x

9440910 - Toke Point, Wa (tokw1) Weather Station

8:54 - Sat 25th Feb 2017 All times are PST. -8 hours from GMT.

  • Wind
    13mph, 16mph gusts
  • Sea Temp 46°f
  • Aire Temp 43°f
  • Sea Pressure 1016.3mb
  • 9440910 - Toke Point, Wa
  • 9440910 - Toke Point, Wa

More Historic Weather Station data

Upgrade to MSW Pro to gain access to the past 30 days of data for over 8000 Wavebouys and Weather Stations around the globe.

Join Pro

Comparision Forecast

View Surf forecast
   
sáb 02/25 8:54 13 16 mph 1016.3mb 46f 43f
8:48 9 14 mph 1016.3mb 46f 43f
8:42 13 17 mph 1016.4mb 46f 43f
8:36 11 17 mph 1016.4mb 46f 43f
8:30 14 16 mph 1016.6mb 46f 43f
8:24 14 18 mph 1016.7mb 46f 44f
8:18 8 17 mph 1016.8mb 46f 44f
8:12 15 20 mph 1016.8mb 46f 44f
8:06 15 18 mph 1016.8mb 47f 44f
8:00 11 17 mph 1017mb 47f 44f
7:54 9 15 mph 1017.2mb 47f 43f
7:48 10 14 mph 1017.3mb 47f 43f
7:42 9 13 mph 1017.5mb 47f 43f
7:36 9 14 mph 1017.6mb 47f 42f
7:30 10 15 mph 1017.7mb 46f 43f
7:24 9 13 mph 1017.8mb 47f 43f
7:18 10 14 mph 1018mb 47f 43f
7:12 11 14 mph 1018.1mb 47f 43f
7:06 9 13 mph 1018.2mb 47f 43f
7:00 10 13 mph 1018.3mb 47f 42f
6:54 8 14 mph 1018.4mb 46f 42f
6:48 11 15 mph 1018.6mb 46f 42f
6:42 11 16 mph 1018.6mb 47f 42f
6:36 10 15 mph 1018.6mb 47f 42f
6:30 7 10 mph 1018.8mb 47f 42f
6:24 8 10 mph 1018.9mb 47f 42f
6:18 6 9 mph 1018.9mb 47f 42f
6:12 8 9 mph 1019mb 47f 42f
6:06 7 10 mph 1019.1mb 47f 42f
6:00 9 10 mph 1019.2mb 47f 42f
5:54 7 10 mph 1019.3mb 47f 42f
5:48 8 10 mph 1019.4mb 47f 42f
5:42 8 10 mph 1019.6mb 47f 42f
5:36 8 10 mph 1019.7mb 47f 43f
5:30 7 9 mph 1019.8mb 47f 43f
5:24 5 7 mph 1019.9mb 47f 43f
5:18 6 8 mph 1020mb 47f 43f
5:12 7 8 mph 1020mb 47f 42f
5:06 7 8 mph 1020.2mb 47f 42f
5:00 6 8 mph 1020.3mb 47f 42f
4:54 5 8 mph 1020.4mb 47f 42f
4:48 5 9 mph 1020.5mb 47f 42f
4:42 6 9 mph 1020.7mb 47f 42f
4:36 7 9 mph 1020.8mb 47f 42f
4:30 8 9 mph 1020.9mb 47f 42f
4:24 6 9 mph 1021.1mb 47f 42f
4:18 7 8 mph 1021.2mb 47f 42f
4:12 7 9 mph 1021.3mb 47f 41f
4:06 8 11 mph 1021.4mb 47f 41f
4:00 8 14 mph 1021.5mb 47f 41f
3:54 9 11 mph 1021.6mb 47f 41f
3:48 11 16 mph 1021.6mb 47f 41f
3:42 13 20 mph 1021.6mb 47f 42f
3:36 15 18 mph 1021.6mb 47f 42f
3:30 10 13 mph 1021.6mb 47f 43f
3:24 9 14 mph 1021.7mb 47f 43f
3:18 8 13 mph 1021.7mb 47f 43f
3:12 9 14 mph 1021.7mb 47f 43f
3:06 13 15 mph 1021.8mb 47f 43f
3:00 10 14 mph 1021.9mb 47f 44f
2:54 11 15 mph 1021.9mb 47f 43f
2:48 9 13 mph 1022mb 47f 44f
2:42 10 14 mph 1022.1mb 47f 44f
2:36 10 15 mph 1022.2mb 47f 44f
2:30 11 15 mph 1022.3mb 47f 43f
2:24 11 15 mph 1022.4mb 47f 43f
2:18 11 15 mph 1022.5mb 47f 43f
2:12 13 16 mph 1022.6mb 47f 44f
2:06 13 16 mph 1022.7mb 47f 44f
2:00 11 15 mph 1022.7mb 47f 44f
1:54 11 16 mph 1022.7mb 47f 44f
1:48 11 15 mph 1022.8mb 47f 44f
1:42 11 16 mph 1022.8mb 47f 44f
1:36 13 16 mph 1022.9mb 47f 44f
1:30 11 17 mph 1023mb 47f 44f
1:24 11 16 mph 1023.1mb 47f 44f
1:18 11 15 mph 1023.1mb 47f 44f
1:12 8 13 mph 1023.2mb 47f 44f
1:06 10 13 mph 1023.3mb 47f 44f
1:00 9 11 mph 1023.4mb 47f 43f
12:54 10 11 mph 1023.6mb 47f 44f
12:48 8 11 mph 1023.8mb 47f 44f
12:42 9 10 mph 1023.9mb 47f 43f
12:36 6 10 mph 1024mb 47f 44f
12:30 7 10 mph 1024mb 47f 43f
12:24 7 9 mph 1024.1mb 47f 43f
12:18 7 9 mph 1024.2mb 47f 43f
12:12 5 7 mph 1024.2mb 47f 43f
12:06 5 6 mph 1024.2mb 47f 44f
12:00 3 5 mph 1024.3mb 47f 43f
11:54 3
mph
1024.3mb 47f 43f
11:48 2 5 mph 1024.4mb 47f 43f
11:42 3
mph
1024.4mb 47f 43f
11:36 3 5 mph 1024.4mb 47f 42f
11:30 3 5 mph 1024.4mb 47f 42f
11:24 3 5 mph 1024.4mb 47f 42f
11:18 3 5 mph 1024.3mb 47f 42f
11:12 5
mph
1024.4mb 47f 41f
11:06 5 6 mph 1024.5mb 47f 41f
11:00 5 6 mph 1024.5mb 47f 41f
10:54 5 6 mph 1024.7mb 47f 41f
10:48 6
mph
1024.6mb 47f 40f
10:42 6 7 mph 1024.7mb 47f 40f
10:36 6 7 mph 1024.8mb 47f 40f
10:30 6 7 mph 1024.9mb 47f 39f
10:24 6 7 mph 1025mb 47f 39f
10:18 7
mph
1025mb 47f 39f
10:12 7 8 mph 1025mb 47f 39f
10:06 7 8 mph 1025mb 47f 39f
10:00 7 8 mph 1025.1mb 47f 38f
9:54 6 8 mph 1025.2mb 47f 38f
9:48 7 8 mph 1025.2mb 47f 38f
9:42 7 8 mph 1025.2mb 47f 38f
9:36 7 8 mph 1025.2mb 47f 39f
9:30 7 8 mph 1025.2mb 47f 39f
9:24 6 7 mph 1025.2mb 47f 39f
9:18 7 8 mph 1025.2mb 47f 38f
9:12 7 8 mph 1025.2mb 47f 38f
9:06 6 7 mph 1025.2mb 47f 38f
9:00 2 3 mph 1025.3mb 47f 38f
8:54 1 2 mph 1025.2mb 47f 38f
8:48 1 2 mph 1025.2mb 47f 38f
8:42 1 3 mph 1025.2mb 47f 38f
8:36  -  2 mph 1025.1mb 46f 38f
8:30 2 3 mph 1025.2mb 46f 37f
8:24 2 3 mph 1025.1mb 46f 37f
8:18 2 3 mph 1025.1mb 46f 36f
8:12 2 5 mph 1025mb 46f 36f
8:06 3 5 mph 1025.1mb 45f 35f
8:00 3 6 mph 1025.1mb 45f 35f
7:54 5 6 mph 1025.1mb 45f 35f
7:48 5 6 mph 1025mb 45f 34f
7:42 6 7 mph 1024.9mb 45f 35f
7:36 6 7 mph 1024.9mb 44f 34f
7:30 7 8 mph 1024.9mb 44f 34f
7:24 7 8 mph 1024.9mb 44f 34f
7:18 8 9 mph 1024.9mb 44f 34f
7:12 8 9 mph 1024.8mb 44f 34f
7:06 9 10 mph 1024.7mb 44f 34f
7:00 8 10 mph 1024.7mb 44f 34f
6:54 8 10 mph 1024.7mb 44f 34f
6:48 8 10 mph 1024.6mb 44f 34f
6:42 9 10 mph 1024.6mb 44f 35f
6:36 9
mph
1024.6mb 44f 35f
6:30 8 9 mph 1024.7mb 44f 35f
6:24 7 8 mph 1024.7mb 44f 35f
6:18 7 9 mph 1024.7mb 44f 35f
6:12 8 10 mph 1024.7mb 44f 35f
6:06 8 10 mph 1024.7mb 44f 35f
6:00 9 10 mph 1024.6mb 45f 35f
5:54 9 10 mph 1024.6mb 45f 35f
5:48 8 9 mph 1024.7mb 45f 36f
5:42 8 9 mph 1024.7mb 45f 36f
5:36 8
mph
1024.7mb 44f 36f
5:30 7 8 mph 1024.7mb 44f 36f
5:24 6 7 mph 1024.7mb 45f 36f
5:18 3 6 mph 1024.7mb 44f 36f
5:12 5 7 mph 1024.8mb 44f 35f
5:06 6 7 mph 1024.8mb 44f 35f
5:00 7 8 mph 1024.8mb 44f 35f
4:54 7 8 mph 1024.7mb 45f 35f
4:48 6 7 mph 1024.7mb 44f 36f
4:42 6 7 mph 1024.7mb 45f 35f
4:36 6 7 mph 1024.6mb 45f 36f
4:30 6 7 mph 1024.6mb 45f 36f
4:24 5 6 mph 1024.6mb 45f 36f
4:18 3 5 mph 1024.6mb 45f 36f
4:12 3 5 mph 1024.7mb 44f 36f
4:06 3 7 mph 1024.6mb 44f 36f
4:00 6 8 mph 1024.6mb 45f 36f
3:54 6 7 mph 1024.6mb 45f 36f
3:48 6 7 mph 1024.6mb 45f 36f
3:42 6 7 mph 1024.5mb 45f 36f
3:36 6
mph
1024.6mb 45f 36f
3:30 5 6 mph 1024.6mb 45f 36f
3:24 5 6 mph 1024.6mb 45f 36f
3:18 5 7 mph 1024.6mb 45f 37f
3:12 6 8 mph 1024.6mb 46f 37f
3:06 7 8 mph 1024.5mb 45f 37f
3:00 7 9 mph 1024.5mb 45f 36f
2:54 7 9 mph 1024.5mb 46f 36f
2:48 8 9 mph 1024.5mb 46f 36f
2:42 8 9 mph 1024.5mb 45f 36f
2:36 7 9 mph 1024.5mb 45f 37f
2:30 8 9 mph 1024.5mb 45f 36f
2:24 9 10 mph 1024.5mb 47f 37f
2:18 8 9 mph 1024.5mb 46f 37f
2:12 9 10 mph 1024.5mb 47f 37f
2:06 9 11 mph 1024.5mb 47f 37f
2:00 9 11 mph 1024.5mb 47f 37f
1:54 10 11 mph 1024.6mb 47f 37f
1:48 10 11 mph 1024.6mb 47f 37f
1:42 9 10 mph 1024.6mb 47f 37f
1:36 8 9 mph 1024.6mb 47f 37f
1:30 8 10 mph 1024.5mb 47f 37f
1:24 8 11 mph 1024.5mb 48f 37f
1:18 9 10 mph 1024.5mb 48f 37f
1:12 9 11 mph 1024.5mb 47f 37f
1:06 9 11 mph 1024.4mb 47f 37f
1:00 10 11 mph 1024.3mb 47f 37f
12:54 10 13 mph 1024.2mb 47f 37f
12:48 9 11 mph 1024.2mb 48f 37f
12:42 10 11 mph 1024.2mb 48f 37f
12:36 9 13 mph 1024.2mb 48f 37f
12:30 10 11 mph 1024.2mb 48f 37f
12:24 8 11 mph 1024.2mb 48f 37f
12:18 10 13 mph 1024.1mb 48f 37f
12:12 10 11 mph 1024.1mb 48f 37f
12:06 10 11 mph 1024.1mb 48f 37f
12:00 9 10 mph 1024.1mb 48f 37f
vie 02/24 11:54 9 11 mph 1024.1mb 48f 37f
11:48 9 10 mph 1024mb 48f 37f
11:42 8 10 mph 1024mb 47f 37f
11:36 9 10 mph 1024mb 47f 37f
11:30 7 10 mph 1024mb 47f 37f
11:24 8 9 mph 1024.1mb 47f 37f
11:18 9 10 mph 1024mb 47f 37f
11:12 8 10 mph 1024mb 47f 37f
11:06 9 10 mph 1024.1mb 47f 37f
11:00 9 10 mph 1024.1mb 47f 38f
10:54 8 9 mph 1024.1mb 47f 38f
10:48 8 10 mph 1024.1mb 47f -
10:42 8 9 mph 1024.1mb 48f -
10:36 7 9 mph 1024.1mb 47f -
10:30 8 10 mph 1024.1mb 47f 38f
10:24 9 10 mph 1024.1mb 47f 38f
10:18 9 10 mph 1024.1mb 47f 38f
10:12 9 11 mph 1024mb 47f 38f
10:06 10 13 mph 1023.9mb 47f 38f
10:00 10 13 mph 1023.9mb 47f 39f
9:54 10 11 mph 1023.8mb 47f 39f
9:48 9 11 mph 1023.7mb - -
9:42 10 11 mph 1023.6mb - -
9:36 9 10 mph 1023.6mb - -
9:30 9 10 mph 1023.6mb 47f 39f
9:24 9 11 mph 1023.6mb 47f 39f
9:18 10 11 mph 1023.7mb 47f 39f
9:12 8 10 mph 1023.7mb 47f 39f
9:06 9 10 mph 1023.6mb 47f 40f
9:00 8 10 mph 1023.5mb 47f 40f
8:54 8 9 mph 1023.4mb 47f 40f
8:48 9 10 mph 1023.3mb 47f 40f
8:42 8 10 mph 1023.3mb 46f 40f
8:36 9 10 mph 1023.2mb 47f 40f
8:30 9 10 mph 1023.1mb 47f 40f
8:24 8 9 mph 1023mb 47f 40f
8:18 8 9 mph 1022.9mb 46f 40f
8:12 8 9 mph 1022.8mb 46f 40f
8:06 8 10 mph 1022.7mb 46f 40f
8:00 8 10 mph 1022.6mb 46f 40f
7:54 8 9 mph 1022.5mb 46f 40f
7:48 8 9 mph 1022.4mb 46f 40f
7:42 7 8 mph 1022.3mb 46f 40f
7:36 6 7 mph 1022.3mb 46f 40f
7:30 6 8 mph 1022.2mb 46f 40f
7:24 7 9 mph 1022.1mb 46f 40f
7:18 7 10 mph 1022.1mb 46f 40f
7:12 9 13 mph 1022.1mb 46f 40f
7:06 11 13 mph 1022mb 46f 40f
7:00 9 10 mph 1021.9mb 46f 41f
6:54 8 10 mph 1021.8mb 46f 41f
6:48 9 10 mph 1021.8mb 46f 41f
6:42 9 10 mph 1021.8mb 46f 41f
6:36 8 10 mph 1021.9mb 46f 41f
6:30 10 11 mph 1021.7mb 46f 41f
6:24 11 13 mph 1021.5mb 46f 42f
6:18 11 14 mph 1021.5mb 46f 41f
6:12 13 14 mph 1021.4mb 46f 42f
6:06 10 14 mph 1021.3mb 46f 42f
6:00 11 14 mph 1021.3mb 47f 42f
5:54 10 11 mph 1021.3mb 47f 42f
5:48 9 11 mph - - -
5:42 9 10 mph 1021.2mb 47f 42f
5:36 9 11 mph 1021.2mb 47f 42f
5:30 9 10 mph 1021.1mb 47f 42f
5:24 10 13 mph 1021.1mb 47f 42f
5:18 11 14 mph 1021mb 47f 42f
5:12 11 14 mph 1020.9mb 47f 42f
5:06 11 13 mph 1020.9mb 47f 42f
5:00 8 10 mph 1020.9mb 47f 43f
4:54 9 11 mph 1021mb 47f 42f
4:48 9 13 mph 1020.9mb 47f 43f
4:42 8 10 mph 1020.9mb 47f 43f
4:36 6 7 mph 1020.8mb 47f 43f
4:30 6 8 mph 1020.8mb 47f 43f
4:24 8 10 mph 1020.7mb 47f 43f
4:18 9 11 mph 1020.7mb 47f 43f
4:12 9 11 mph 1020.7mb 47f 43f
4:06 9 11 mph 1020.7mb 47f 43f
4:00 6 8 mph 1020.8mb 47f 43f
3:54 7 10 mph 1020.8mb 47f 43f
3:48 8 10 mph 1020.7mb 47f 43f
3:42 8 9 mph 1020.7mb 47f 42f
3:36 8 10 mph 1020.7mb 47f 42f
3:30 8 11 mph 1020.6mb 47f 42f
3:24 6 10 mph 1020.7mb 47f 43f
3:18 8 10 mph 1020.6mb 47f 42f
3:12 9 11 mph 1020.6mb 47f 42f
3:06 11 13 mph 1020.6mb 47f 42f
3:00 9 13 mph 1020.6mb 47f 42f
2:54 9 11 mph 1020.6mb 47f 42f
2:48 9 11 mph 1020.5mb - 42f
2:42 10 11 mph 1020.6mb - 42f
2:36 10 11 mph 1020.6mb - 42f
2:30 8 9 mph 1020.6mb 47f 42f
2:24 8 10 mph 1020.6mb 47f 41f
2:18 7 13 mph 1020.6mb 47f 42f
2:12 8 11 mph 1020.6mb 47f 42f
2:06 8 9 mph 1020.6mb 47f 41f
2:00 8 9 mph 1020.6mb 47f 41f
1:54 8 11 mph 1020.6mb 47f 41f
1:48 9 11 mph 1020.6mb 47f 41f
1:42 6 9 mph 1020.7mb 47f 41f
1:36 7 10 mph 1020.8mb 47f 41f
1:30 9 11 mph 1020.8mb 47f 40f
1:24 10 14 mph 1020.8mb 47f 40f
1:18 8 10 mph 1020.8mb 47f 40f
1:12 7 9 mph 1020.8mb 47f 40f
1:06 8 10 mph 1020.8mb 47f 40f
1:00 8 10 mph 1020.8mb 47f 40f
12:54 7 10 mph 1020.8mb 47f 40f
12:48 7 10 mph 1020.8mb 47f 40f
12:36 9 11 mph 1020.8mb 47f 40f
12:30 8 9 mph 1020.8mb 48f 40f
12:24 8 9 mph 1020.9mb 48f 39f
12:18 9 11 mph 1020.9mb 48f 39f
12:12 9 10 mph 1020.9mb 48f 38f
12:06 9 10 mph 1020.9mb 48f 38f
12:00 9 11 mph 1020.9mb 48f 38f
11:54 9 13 mph 1020.9mb 48f 38f
11:48 9 11 mph 1020.8mb 48f 39f
11:42 9 11 mph 1020.9mb 48f 38f
11:36 9 11 mph 1020.8mb 48f 38f
11:30 9 11 mph 1020.8mb 48f 38f
11:24 10 13 mph 1020.8mb 48f 38f
11:18 9 10 mph 1020.7mb 48f 38f
11:12 8 11 mph 1020.7mb 48f 38f
11:06 9 13 mph 1020.7mb 48f 38f
11:00 8 11 mph 1020.6mb 48f 38f
10:54 9 11 mph 1020.6mb 48f 37f
10:48 9 11 mph 1020.6mb 48f 37f
10:42 9 11 mph 1020.6mb 48f 37f
10:36 10 11 mph 1020.6mb 48f 37f
10:30 9 13 mph 1020.6mb 48f 37f
10:24 9 11 mph 1020.6mb 48f 37f
10:18 10 13 mph 1020.6mb 48f 37f
10:12 9 11 mph 1020.6mb 48f 37f
10:06 9 13 mph 1020.5mb 48f 37f
10:00 9 13 mph 1020.5mb 48f 37f
9:54 10 13 mph 1020.4mb 48f 37f
9:48 10 14 mph 1020.4mb 48f 38f
9:42 10 14 mph 1020.4mb 47f 37f
9:36 10 11 mph 1020.4mb 47f 37f
9:30 11 13 mph 1020.3mb 47f 37f
9:24 9 14 mph 1020.3mb 47f 37f
9:18 9 13 mph 1020.2mb 47f 37f
9:12 9 11 mph 1020.3mb 47f 37f
9:06 9 11 mph 1020.2mb 47f 37f
9:00 9 11 mph 1020.2mb 47f 37f
8:54 8 10 mph 1020.2mb 48f 37f
8:48 8 11 mph 1020.3mb 48f 37f
8:42 8 14 mph 1020.3mb 48f 37f
8:36 9 11 mph 1020.2mb 47f 37f
8:30 10 11 mph 1020.2mb 47f 37f
8:24 8 11 mph 1020.2mb 47f 37f
8:18 9 13 mph 1020.3mb 47f 36f
8:12 9 14 mph 1020.3mb 47f 37f
8:06 10 15 mph 1020.4mb 47f 37f
8:00 8 14 mph 1020.4mb 47f 37f
7:54 8 13 mph 1020.4mb 47f 37f
7:48 9 13 mph 1020.3mb 47f 37f
7:42 9 11 mph 1020.3mb 47f 37f
7:36 9 13 mph 1020.3mb 47f 37f
7:30 10 13 mph 1020.3mb 46f 37f
7:24 11 15 mph 1020.3mb 46f 37f
7:12 11 14 mph 1020.2mb 46f 36f
7:06 11 15 mph 1020.3mb 46f 36f
7:00 13 16 mph 1020.3mb 46f 36f
6:54 14 17 mph 1020.4mb 46f 36f
6:48 15 17 mph 1020.4mb 46f 36f
6:42 10 14 mph 1020.4mb 46f 37f
6:36 8 10 mph 1020.3mb 46f 36f
6:30 8 9 mph 1020.3mb 46f 36f
6:24 7 9 mph 1020.3mb 46f 36f
6:18 7 10 mph 1020.3mb 46f 36f
6:12 8 10 mph 1020.3mb 46f 36f
6:06 9 13 mph 1020.4mb 46f 36f
6:00 10 11 mph 1020.4mb 46f 36f
5:54 9 11 mph 1020.4mb 46f 36f
5:48 10 13 mph 1020.5mb 46f 36f
5:42 11 14 mph 1020.5mb 46f 36f
5:36 10 14 mph 1020.5mb 46f 36f
5:30 13 15 mph 1020.4mb 46f 36f
5:24 14 17 mph 1020.3mb 46f 37f
5:18 15 17 mph 1020.3mb 46f 37f
5:12 14 16 mph 1020.5mb 46f 36f
5:06 15 18 mph 1020.6mb 46f 36f
5:00 16 17 mph 1020.7mb 47f 36f
4:54 14 18 mph 1020.7mb 47f 37f
4:48 10 15 mph 1020.8mb 47f 37f
4:42 13 15 mph 1020.9mb 47f 37f
4:36 11 14 mph 1020.8mb 47f 37f
4:30 13 14 mph 1020.8mb 47f 37f
4:24 11 13 mph 1020.9mb 47f 37f
4:18 10 14 mph 1021mb 47f 38f
4:12 11 14 mph 1021mb 47f 38f
4:06 10 14 mph 1021.1mb 47f 38f
4:00 7 13 mph 1021.1mb 47f 38f
3:54 10 14 mph 1021.1mb 47f 38f
3:48 9 14 mph 1021.1mb 47f 39f
3:42 9 11 mph 1021.1mb 47f 38f
3:36 8 10 mph 1021.1mb 46f 39f
3:30 6 9 mph 1021.1mb 47f 38f
3:24 6 8 mph 1021.1mb 47f 38f
3:18 3 21 mph 1021.2mb 47f 38f
3:12 13 17 mph 1021mb 47f 38f
3:06 11 15 mph 1021.2mb 47f 38f
3:00 11 16 mph 1021.1mb 47f 38f
2:54 16 18 mph 1020.9mb 47f 38f
2:48 16 18 mph 1021mb 46f 38f
2:42 16 18 mph 1021.1mb 46f 38f
2:36 15 16 mph 1021.2mb 46f 38f
2:30 14 16 mph 1021.3mb 47f 39f
2:24 14 16 mph 1021.3mb 47f 39f
2:18 14 16 mph 1021.4mb 47f 39f
2:12 15 17 mph 1021.4mb 47f 40f
2:06 14 16 mph 1021.5mb 47f 40f
2:00 14 16 mph 1021.5mb 48f 40f
1:54 14 16 mph 1021.5mb 48f 40f
1:48 14 16 mph 1021.6mb 48f 40f
1:42 14 16 mph 1021.6mb 48f 40f
1:36 15 17 mph 1021.6mb 48f 40f
1:30 13 15 mph 1021.7mb 48f 41f
1:24 8 11 mph 1021.7mb 48f 42f
1:18 8 11 mph 1021.8mb 48f 42f
1:12 6 9 mph 1021.8mb 48f 41f
1:06 6 9 mph 1021.9mb 48f 41f
1:00 3 6 mph 1021.9mb 48f 41f
12:54 3 8 mph 1021.9mb 48f 41f
12:48 5 6 mph 1021.9mb 48f 41f
12:42 5 6 mph 1021.9mb 48f 41f
12:36 6 7 mph 1022mb 48f 41f
12:30 6 9 mph 1022mb 48f 41f
12:24 6 9 mph 1022mb 48f 41f
12:18 7 9 mph 1022.1mb 48f 41f
12:12 7 10 mph 1022.2mb 48f 41f
12:06 7 10 mph 1022.2mb 48f 41f
12:00 7 11 mph 1022.3mb 48f 41f
jue 02/23 11:54 10 14 mph 1022.3mb 48f 41f
11:48 10 14 mph 1022.4mb 48f 41f
11:42 10 16 mph 1022.4mb 48f 41f
11:36 11 16 mph 1022.5mb 48f 41f
11:30 11 17 mph 1022.5mb 48f 40f
11:24 14 17 mph 1022.6mb 48f 40f
11:18 7 14 mph 1022.6mb 48f 40f
11:12 7 9 mph 1022.7mb 48f 41f
11:06 6 10 mph 1022.8mb 48f 40f
11:00 2 7 mph 1022.8mb 48f 40f
10:54 5 6 mph 1022.8mb 48f 39f
10:48 2 5 mph 1022.9mb 48f -
10:42 3 6 mph 1023mb 48f -
10:36 5 7 mph 1023mb 48f -
10:30 6 8 mph 1022.9mb 48f 38f
10:24 6 9 mph 1023mb 48f 39f
10:18 7 8 mph 1022.9mb 48f 39f
10:12 6 7 mph 1022.9mb 48f 39f
10:06 7
mph
1022.9mb 48f 39f
10:00 7 8 mph 1022.9mb 48f 39f
9:54 7 8 mph 1022.9mb 48f 39f
9:48 6 7 mph 1022.9mb 48f -
9:42 5 6 mph 1022.9mb 48f -
9:36 6
mph
1023mb 48f -
9:30 5 6 mph 1023mb 48f 40f
9:24 5 6 mph 1023mb 48f 40f
9:18 5 6 mph 1023mb 48f 40f
9:12 5
mph
1023mb 48f 39f
9:06 5 6 mph 1023mb 48f 39f
9:00 3 5 mph 1023mb 48f 39f
8:54 5
mph
1023mb 48f 39f
8:48 5
mph
1023mb 48f 40f
8:42 2 3 mph 1023mb 48f 40f
8:36 1 3 mph 1023mb 48f 40f
8:30 2 3 mph 1023.1mb 48f 40f
8:24 3
mph
1023.1mb 48f 40f
8:18 3 5 mph 1023mb 48f 40f
8:12 5
mph
1023.1mb 48f 40f
8:06 3 5 mph 1023.1mb 48f 40f
8:00 3 6 mph 1023.2mb 48f 40f
7:54 6
mph
1023.2mb 48f 40f
7:48 5 6 mph - 48f 40f
7:42 3 5 mph - 48f 40f
7:36 5 6 mph - 48f 40f
7:30 5 6 mph 1023.2mb 48f 41f
7:24 5 6 mph 1023.2mb 48f 41f
7:18 6
mph
1023.2mb 48f 41f
7:12 5 6 mph 1023.2mb 48f 41f
7:06 5 6 mph 1023.2mb 48f 41f
7:00 5 7 mph 1023.3mb 48f 41f
6:54 6 7 mph 1023.3mb 48f 41f
6:48 6 7 mph 1023.4mb 48f 42f
6:42 6 7 mph 1023.4mb 48f 41f
6:36 7 8 mph 1023.3mb 48f 42f
6:30 6 8 mph 1023.4mb 48f 42f
6:24 8 10 mph 1023.3mb 48f 42f
6:18 9 10 mph 1023.3mb 48f 42f
6:12 9 10 mph 1023.3mb 48f 43f
6:06 8 13 mph 1023.3mb 48f 43f
6:00 10 14 mph 1023.3mb 48f 43f
5:54 6 9 mph 1023.4mb 48f 43f
5:48 8 10 mph 1023.4mb 48f 43f
5:42 8 10 mph 1023.4mb 48f 43f
5:36 9 10 mph 1023.3mb 48f 44f
5:30 7 9 mph 1023.3mb 48f 44f
5:24 9 11 mph 1023.4mb 48f 44f
5:18 8 10 mph 1023.4mb 48f 44f
5:12 9 11 mph 1023.5mb 48f 44f
5:06 10 15 mph 1023.4mb 48f 44f
5:00 9 13 mph 1023.4mb 48f 45f
4:54 11 15 mph 1023.4mb 48f 44f
4:48 13 14 mph 1023.4mb 48f 45f
4:42 8 14 mph 1023.4mb 48f 45f
4:36 8 11 mph 1023.4mb 48f 45f
4:30 9 14 mph 1023.4mb 48f 45f
4:24 10 14 mph 1023.4mb 48f 44f
4:18 11 15 mph 1023.4mb 48f 45f
4:12 10 16 mph 1023.4mb 48f 45f
4:06 11 15 mph 1023.4mb 48f 45f
4:00 8 10 mph 1023.4mb 48f 45f
3:54 9 13 mph 1023.5mb 48f 44f
3:48 7 11 mph 1023.6mb 48f 45f
3:42 8 13 mph 1023.7mb 48f 44f
3:36 9 13 mph 1023.8mb 48f 44f
3:30 7 11 mph 1023.8mb 48f 44f
3:24 8 11 mph 1023.8mb 48f 45f
3:18 8 11 mph 1023.8mb 48f 44f
3:12 9 13 mph 1023.8mb 48f 44f
3:06 10 13 mph 1023.9mb 48f 44f
3:00 8 14 mph 1024mb 48f 45f
2:54 9 13 mph 1024mb 48f 44f
2:48 8 13 mph 1024.1mb 48f 44f
2:42 9 11 mph 1024.1mb 48f 44f
2:36 10 15 mph 1024.1mb 48f 44f
2:30 10 14 mph 1024.1mb 48f 44f
2:24 9 13 mph 1024.1mb 48f 45f
2:18 10 14 mph 1024.1mb 48f 45f
2:12 10 14 mph 1024.2mb 48f 44f
2:06 11 15 mph 1024.2mb 48f 44f
2:00 11 15 mph 1024.2mb 48f 44f
1:54 10 14 mph 1024.2mb 48f 44f
1:48 11 15 mph - - -
1:42 9 14 mph 1024.4mb 48f 44f
1:36 9 13 mph 1024.5mb 48f 44f
1:30 8 10 mph 1024.6mb 48f 44f
1:24 7 10 mph 1024.6mb 48f 44f
1:18 8 10 mph 1024.7mb 48f 44f
1:12 7 10 mph 1024.7mb 48f 44f
1:06 6 8 mph 1024.8mb 47f 44f
1:00 7 9 mph 1024.8mb 48f 44f
12:54 6 8 mph 1024.8mb 47f 44f
12:48 7 8 mph 1024.9mb 48f 43f
12:42 5 7 mph 1024.9mb 48f 44f
12:36 5 7 mph 1024.9mb 48f 43f
12:30 3 6 mph 1025mb 48f 42f
12:24 6 7 mph 1025.1mb 48f 42f
12:18 6 8 mph 1025.1mb 48f 42f
12:12 6 7 mph 1025.1mb 48f 43f
12:06 5 8 mph 1025.2mb 48f 42f
12:00 6
mph
1025.2mb 48f 42f
11:54 6 7 mph 1025.3mb 48f 42f
11:48 5 6 mph 1025.4mb 48f 42f
11:42 5 6 mph 1025.4mb 48f 42f
11:36 5 6 mph 1025.4mb 48f 42f
11:30 3 6 mph 1025.4mb 48f 42f
11:24 3 6 mph 1025.5mb 48f 41f
11:18 3 5 mph 1025.5mb 48f 41f
11:12 3 5 mph 1025.5mb 48f 41f
11:06 3 5 mph 1025.5mb 48f 41f
11:00 5 7 mph 1025.5mb 48f 41f
10:54 2 5 mph 1025.5mb 48f 41f
10:48 2 5 mph 1025.6mb 48f 40f
10:42 3 6 mph 1025.5mb 48f 40f
10:36 3 6 mph 1025.5mb 48f 40f
10:30 5 7 mph 1025.5mb 48f 39f
10:24 6 8 mph 1025.4mb 48f 39f
10:18 6 7 mph 1025.4mb 48f 38f
10:12 6 7 mph 1025.4mb 48f 38f
10:06 6 7 mph 1025.4mb 48f 37f
10:00 6 7 mph 1025.4mb 48f 37f
9:54 6 7 mph 1025.4mb 48f 37f
9:48 6 7 mph 1025.4mb 48f 37f
9:42 6 7 mph 1025.4mb 48f 36f
9:36 7 8 mph 1025.3mb 48f 36f
9:30 6 8 mph 1025.2mb 48f 36f
9:24 7 8 mph 1025.2mb 48f 35f
9:18 7 8 mph 1025.2mb 48f 35f
9:12 7 8 mph 1025.2mb 48f 35f
9:06 6 8 mph 1025.1mb 48f 35f
9:00 7 8 mph 1025.1mb 48f 35f
8:54 7 8 mph 1025.1mb 48f 35f
8:48 8
mph
1025mb 48f 34f
8:42 7 9 mph 1025mb 48f 34f
8:36 8 9 mph 1025mb 48f 34f
8:30 8 9 mph 1025mb 48f 34f
8:24 8 9 mph 1025mb 48f 34f
8:18 7 8 mph 1025mb 48f 34f
8:12 8 9 mph 1025mb 48f 34f
8:06 8 9 mph 1024.9mb 48f 34f
8:00 9 10 mph 1024.9mb 48f 34f
7:54 9 10 mph 1024.9mb 48f 34f
7:48 8 9 mph 1024.8mb 48f 34f
7:42 8 9 mph 1024.8mb 48f 33f
7:36 8 9 mph 1024.7mb 48f 33f
7:30 8 10 mph 1024.6mb 48f 33f
7:24 8 10 mph 1024.6mb 48f 33f
7:18 8 10 mph 1024.5mb 48f 33f
7:12 8 9 mph 1024.4mb 47f 33f
7:00 7 9 mph 1024.4mb 47f 33f
6:54 7 9 mph 1024.3mb 47f 33f
6:48 7 8 mph 1024.3mb 47f 33f
6:42 8 10 mph 1024.2mb 47f 33f
6:36 9 10 mph 1024.2mb 47f 34f
6:30 10
mph
1024.1mb 46f 34f
6:24 8 10 mph 1024.1mb 46f 34f
6:18 7 8 mph 1024.1mb 46f 35f
6:12 6 7 mph 1024.1mb 46f 35f
6:06 7 8 mph 1024.1mb 46f 35f
6:00 8
mph
1024.2mb 45f 34f
5:54 7 8 mph 1024.2mb 45f 34f
5:48 7 8 mph 1024.2mb 45f 34f
5:42 7 9 mph 1024.2mb 45f 34f
5:36 8 9 mph 1024.2mb 45f 34f
5:30 8 9 mph 1024.1mb 45f 34f
5:24 8 9 mph 1024.1mb 45f 34f
5:18 7 9 mph 1024.1mb 45f 34f
5:12 8 10 mph 1024.1mb 45f 34f
5:06 9 10 mph 1024mb 45f 34f
5:00 8 10 mph 1024mb 45f 34f
4:54 9 10 mph 1024.1mb 45f 35f
4:48 8 9 mph 1024.1mb 45f 34f
4:42 9 10 mph 1024mb 45f 35f
4:36 8 9 mph 1024mb 45f 35f
4:30 7 8 mph 1024mb 45f 34f
4:24 6 8 mph 1024mb 45f 35f
4:18 7 9 mph 1024mb 45f 35f
4:12 7 8 mph 1024mb 45f 35f
4:06 7 9 mph 1024mb 45f 34f
4:00 8 9 mph 1024.1mb 45f 34f
3:54 8 9 mph 1024mb 45f 34f
3:48 9 10 mph 1024.1mb 45f 34f
3:42 9 10 mph 1024mb 44f 34f
3:36 9 10 mph 1024mb 44f 34f
3:30 9 10 mph 1024mb 45f 35f
3:24 9 10 mph 1023.9mb 45f 35f
3:18 10 11 mph 1023.8mb 45f 35f
3:12 9 11 mph 1023.8mb 45f 35f
3:06 9 10 mph 1023.8mb 45f 35f
3:00 9 10 mph 1023.8mb 45f 35f
2:54 8 10 mph 1023.9mb 45f 34f
2:48 8 10 mph 1023.9mb 46f 34f
2:42 9 10 mph 1023.9mb 46f 34f
2:36 8 10 mph 1023.9mb 46f 34f
2:30 9 11 mph 1023.8mb 46f 35f
2:24 10 11 mph 1023.7mb 46f 35f
2:18 9 10 mph 1023.7mb 45f 35f
2:12 10 11 mph 1023.7mb 46f 35f
2:06 7 8 mph 1023.7mb 46f 36f
2:00 7
mph
1023.8mb 45f 35f
1:54 5 6 mph 1023.9mb 46f 35f
1:48 2 3 mph 1024mb 46f 35f
12:54 5 6 mph 1024.2mb 46f 35f
12:48 6 8 mph 1024.1mb 47f 35f
mié 02/22 11:54 6 7 mph 1023.9mb 48f 37f
11:48 6 7 mph 1023.9mb 48f 37f
10:54 6
mph
1023.9mb 48f 38f
10:48 5 6 mph 1023.9mb 48f 38f
9:54 2
mph
1023.8mb 48f 38f
9:48  -  3 mph 1023.8mb 48f 37f
8:54 3 5 mph 1023.4mb 48f 39f
8:48 3
mph
1023.4mb 48f 39f
7:54 3 5 mph 1023.1mb 48f 39f
7:48 3
mph
1023.1mb 48f 39f
6:54 2 5 mph 1023.1mb 48f 40f
6:48 5
mph
1023.1mb 48f 40f
5:54 7 9 mph 1022.9mb 48f 41f
5:48 7 9 mph 1022.9mb 48f 42f
4:54 9 11 mph 1022.7mb 48f 44f
4:48 8 14 mph 1022.7mb 48f 44f
3:54 9 13 mph 1022.7mb 48f 43f
3:48 8 13 mph 1022.7mb 48f 43f
2:54 14 17 mph 1022.8mb 47f 43f
2:48 11 14 mph 1022.8mb 47f 43f
1:54 2 3 mph 1022.8mb 47f 42f
1:48 2 5 mph 1022.9mb 47f 42f
12:54 7 10 mph 1023mb 47f 41f
12:48 7 10 mph 1023.2mb 47f 41f
11:54 18 24 mph 1023.4mb 47f 41f
11:48 21 24 mph 1023.3mb 47f 41f
10:54 2
mph
1023.5mb 48f 42f
10:48 2 3 mph 1023.5mb 48f 42f
9:54 5 6 mph 1023.5mb 48f 39f
9:48 5 6 mph 1023.6mb 48f 39f
8:54 3
mph
1023.4mb 48f 39f
8:48 2 3 mph 1023.4mb 48f 39f
7:54 7 8 mph 1023.3mb 48f 36f
7:48 7 9 mph 1023.3mb 48f 35f
6:54 8 9 mph 1022.8mb 47f 37f
6:48 7
mph
1022.8mb 47f 38f
5:54 6 8 mph 1023.1mb 47f 38f
5:48 6 8 mph 1023.1mb 47f 37f